Falls Church, Virginia
Current Conditions -  °F | °C
As of 2:52 AM on Friday 19 Dec 2014 (Local Time) from KDCA Reporting Station
Overcast Overcast  
Wind Chill: 33°   Ceiling: 10000
Heat Index: 38°   Visibility: 10mi
Dew Point: 21°   Wind: 7mph
Humidity: 51%   Direction: 290°WNW
Pressure: 30.14"   Gusts: NA
Location:  38.89°N, 77.17°W
Report Text: KDCA 190752Z 29006KT 10SM FEW035 OVC100 03/M06 A3014 RMK AO2 SLP205 T00331061
Loading
Personal Weather Stations






























Interactive Weather Map New forecast layout! Learn more

10-Day Weather Forecast

Advertisements
Track Severe Weather on mobile